sensor_id;sensor_type;location;lat;lon;timestamp;temperature;humidity
39951;DHT22;25629;51.444;-2.606;2023-10-09T00:00:24;15.20;1.00
39951;DHT22;25629;51.444;-2.606;2023-10-09T00:03:05;15.20;99.90
39951;DHT22;25629;51.444;-2.606;2023-10-09T00:05:32;15.10;23.00
39951;DHT22;25629;51.444;-2.606;2023-10-09T00:08:13;15.10;99.90
39951;DHT22;25629;51.444;-2.606;2023-10-09T00:10:43;15.10;99.90
39951;DHT22;25629;51.444;-2.606;2023-10-09T00:13:21;15.10;99.90
39951;DHT22;25629;51.444;-2.606;2023-10-09T00:15:57;15.10;10.00
39951;DHT22;25629;51.444;-2.606;2023-10-09T00:18:27;15.10;1.00
39951;DHT22;25629;51.444;-2.606;2023-10-09T00:20:56;15.10;99.90
39951;DHT22;25629;51.444;-2.606;2023-10-09T00:23:37;15.10;99.90
39951;DHT22;25629;51.444;-2.606;2023-10-09T00:26:03;15.10;99.90
39951;DHT22;25629;51.444;-2.606;2023-10-09T00:28:36;15.10;1.00
39951;DHT22;25629;51.444;-2.606;2023-10-09T00:31:03;15.10;13.80
39951;DHT22;25629;51.444;-2.606;2023-10-09T00:33:32;15.10;1.00
39951;DHT22;25629;51.444;-2.606;2023-10-09T00:36:04;15.00;1.00
39951;DHT22;25629;51.444;-2.606;2023-10-09T00:38:39;15.00;99.90
39951;DHT22;25629;51.444;-2.606;2023-10-09T00:41:14;15.00;99.90
39951;DHT22;25629;51.444;-2.606;2023-10-09T00:43:44;14.90;99.90
39951;DHT22;25629;51.444;-2.606;2023-10-09T00:46:10;14.90;1.00
39951;DHT22;25629;51.444;-2.606;2023-10-09T00:48:46;14.90;99.90
39951;DHT22;25629;51.444;-2.606;2023-10-09T00:51:13;14.90;99.90
39951;DHT22;25629;51.444;-2.606;2023-10-09T00:53:43;14.90;1.00
39951;DHT22;25629;51.444;-2.606;2023-10-09T00:56:08;14.90;1.00
39951;DHT22;25629;51.444;-2.606;2023-10-09T00:59:01;14.90;99.90
39951;DHT22;25629;51.444;-2.606;2023-10-09T01:01:40;14.90;99.90
39951;DHT22;25629;51.444;-2.606;2023-10-09T01:04:06;14.90;99.90
39951;DHT22;25629;51.444;-2.606;2023-10-09T01:06:38;14.90;99.90
39951;DHT22;25629;51.444;-2.606;2023-10-09T01:09:10;14.80;92.70
39951;DHT22;25629;51.444;-2.606;2023-10-09T01:11:37;14.80;1.00
39951;DHT22;25629;51.444;-2.606;2023-10-09T01:14:23;14.90;99.90
39951;DHT22;25629;51.444;-2.606;2023-10-09T01:16:48;14.90;99.90
39951;DHT22;25629;51.444;-2.606;2023-10-09T01:19:14;15.00;99.90
39951;DHT22;25629;51.444;-2.606;2023-10-09T01:22:00;14.90;99.90
39951;DHT22;25629;51.444;-2.606;2023-10-09T01:24:41;15.00;99.90
39951;DHT22;25629;51.444;-2.606;2023-10-09T01:27:08;14.90;99.90
39951;DHT22;25629;51.444;-2.606;2023-10-09T01:29:40;14.90;43.30
39951;DHT22;25629;51.444;-2.606;2023-10-09T01:32:07;14.70;99.90
39951;DHT22;25629;51.444;-2.606;2023-10-09T01:34:34;14.80;99.90
39951;DHT22;25629;51.444;-2.606;2023-10-09T01:37:19;14.70;99.90
39951;DHT22;25629;51.444;-2.606;2023-10-09T01:39:50;14.60;1.00
39951;DHT22;25629;51.444;-2.606;2023-10-09T01:42:20;14.60;1.00
39951;DHT22;25629;51.444;-2.606;2023-10-09T01:44:50;14.50;1.00
39951;DHT22;25629;51.444;-2.606;2023-10-09T01:47:17;14.50;1.00
39951;DHT22;25629;51.444;-2.606;2023-10-09T01:49:44;14.40;1.00
39951;DHT22;25629;51.444;-2.606;2023-10-09T01:52:15;14.40;1.00
39951;DHT22;25629;51.444;-2.606;2023-10-09T01:54:42;14.40;1.00
39951;DHT22;25629;51.444;-2.606;2023-10-09T01:57:12;14.40;1.00
39951;DHT22;25629;51.444;-2.606;2023-10-09T01:59:38;14.40;1.00
39951;DHT22;25629;51.444;-2.606;2023-10-09T02:02:08;14.40;1.00
39951;DHT22;25629;51.444;-2.606;2023-10-09T02:07:19;14.30;1.00
39951;DHT22;25629;51.444;-2.606;2023-10-09T02:09:53;14.20;1.00
39951;DHT22;25629;51.444;-2.606;2023-10-09T02:12:19;14.20;1.00
39951;DHT22;25629;51.444;-2.606;2023-10-09T02:14:47;14.20;2.70
39951;DHT22;25629;51.444;-2.606;2023-10-09T02:17:13;14.20;9.20
39951;DHT22;25629;51.444;-2.606;2023-10-09T02:19:45;14.20;15.20
39951;DHT22;25629;51.444;-2.606;2023-10-09T02:22:15;14.10;16.00
39951;DHT22;25629;51.444;-2.606;2023-10-09T02:24:41;14.10;24.70
39951;DHT22;25629;51.444;-2.606;2023-10-09T02:27:15;14.10;30.10
39951;DHT22;25629;51.444;-2.606;2023-10-09T02:30:00;14.10;28.90
39951;DHT22;25629;51.444;-2.606;2023-10-09T02:32:33;14.10;34.20
39951;DHT22;25629;51.444;-2.606;2023-10-09T02:35:00;14.00;43.70
39951;DHT22;25629;51.444;-2.606;2023-10-09T02:37:34;14.10;49.00
39951;DHT22;25629;51.444;-2.606;2023-10-09T02:40:03;14.10;48.90
39951;DHT22;25629;51.444;-2.606;2023-10-09T02:42:34;14.10;47.00
39951;DHT22;25629;51.444;-2.606;2023-10-09T02:45:00;14.10;48.40
39951;DHT22;25629;51.444;-2.606;2023-10-09T02:47:26;14.10;48.50
39951;DHT22;25629;51.444;-2.606;2023-10-09T02:50:03;14.00;54.70
39951;DHT22;25629;51.444;-2.606;2023-10-09T02:52:44;13.90;60.50
39951;DHT22;25629;51.444;-2.606;2023-10-09T02:55:15;14.00;65.20
39951;DHT22;25629;51.444;-2.606;2023-10-09T02:57:50;14.00;69.10
39951;DHT22;25629;51.444;-2.606;2023-10-09T03:00:29;14.00;77.30
39951;DHT22;25629;51.444;-2.606;2023-10-09T03:02:57;13.90;78.00
39951;DHT22;25629;51.444;-2.606;2023-10-09T03:05:24;13.90;82.80
39951;DHT22;25629;51.444;-2.606;2023-10-09T03:07:53;13.90;84.30
39951;DHT22;25629;51.444;-2.606;2023-10-09T03:10:19;13.90;86.30
39951;DHT22;25629;51.444;-2.606;2023-10-09T03:12:45;13.90;88.70
39951;DHT22;25629;51.444;-2.606;2023-10-09T03:15:12;13.90;93.90
39951;DHT22;25629;51.444;-2.606;2023-10-09T03:17:38;14.00;99.90
39951;DHT22;25629;51.444;-2.606;2023-10-09T03:20:04;14.10;99.90
39951;DHT22;25629;51.444;-2.606;2023-10-09T03:22:37;14.20;99.90
39951;DHT22;25629;51.444;-2.606;2023-10-09T03:25:03;14.40;99.90
39951;DHT22;25629;51.444;-2.606;2023-10-09T03:27:40;14.60;99.90
39951;DHT22;25629;51.444;-2.606;2023-10-09T03:30:11;14.70;99.90
39951;DHT22;25629;51.444;-2.606;2023-10-09T03:32:42;14.80;99.90
39951;DHT22;25629;51.444;-2.606;2023-10-09T03:35:08;14.90;99.90
39951;DHT22;25629;51.444;-2.606;2023-10-09T03:37:35;15.00;99.90
39951;DHT22;25629;51.444;-2.606;2023-10-09T03:40:01;15.10;99.90
39951;DHT22;25629;51.444;-2.606;2023-10-09T03:42:27;15.10;99.90
39951;DHT22;25629;51.444;-2.606;2023-10-09T03:44:52;15.10;99.90
39951;DHT22;25629;51.444;-2.606;2023-10-09T03:47:19;15.20;99.90
39951;DHT22;25629;51.444;-2.606;2023-10-09T03:49:48;15.20;99.90
39951;DHT22;25629;51.444;-2.606;2023-10-09T03:52:16;15.20;99.90
39951;DHT22;25629;51.444;-2.606;2023-10-09T03:54:43;15.30;99.90
39951;DHT22;25629;51.444;-2.606;2023-10-09T03:57:14;15.30;99.90
39951;DHT22;25629;51.444;-2.606;2023-10-09T03:59:47;15.30;99.90
39951;DHT22;25629;51.444;-2.606;2023-10-09T04:02:13;15.30;99.90
39951;DHT22;25629;51.444;-2.606;2023-10-09T04:04:40;15.40;99.90
39951;DHT22;25629;51.444;-2.606;2023-10-09T04:07:06;15.50;99.90
39951;DHT22;25629;51.444;-2.606;2023-10-09T04:09:32;15.50;99.90
39951;DHT22;25629;51.444;-2.606;2023-10-09T04:12:10;15.50;99.90
39951;DHT22;25629;51.444;-2.606;2023-10-09T04:14:39;15.60;99.90
39951;DHT22;25629;51.444;-2.606;2023-10-09T04:17:33;15.60;99.90
39951;DHT22;25629;51.444;-2.606;2023-10-09T04:20:03;15.70;99.90
39951;DHT22;25629;51.444;-2.606;2023-10-09T04:22:44;15.80;99.90
39951;DHT22;25629;51.444;-2.606;2023-10-09T04:25:16;15.80;99.90
39951;DHT22;25629;51.444;-2.606;2023-10-09T04:27:53;15.80;99.90
39951;DHT22;25629;51.444;-2.606;2023-10-09T04:30:25;15.90;99.90
39951;DHT22;25629;51.444;-2.606;2023-10-09T04:32:51;15.90;99.90
39951;DHT22;25629;51.444;-2.606;2023-10-09T04:35:20;16.00;99.90
39951;DHT22;25629;51.444;-2.606;2023-10-09T04:37:50;16.00;99.90
39951;DHT22;25629;51.444;-2.606;2023-10-09T04:40:28;16.10;99.90
39951;DHT22;25629;51.444;-2.606;2023-10-09T04:43:13;16.10;99.90
39951;DHT22;25629;51.444;-2.606;2023-10-09T04:45:48;16.20;99.90
39951;DHT22;25629;51.444;-2.606;2023-10-09T04:48:34;16.10;99.90
39951;DHT22;25629;51.444;-2.606;2023-10-09T04:51:11;16.20;99.90
39951;DHT22;25629;51.444;-2.606;2023-10-09T04:53:56;16.20;99.90
39951;DHT22;25629;51.444;-2.606;2023-10-09T04:56:58;16.30;99.90
39951;DHT22;25629;51.444;-2.606;2023-10-09T04:59:25;16.30;99.90
39951;DHT22;25629;51.444;-2.606;2023-10-09T05:01:51;16.20;99.90
39951;DHT22;25629;51.444;-2.606;2023-10-09T05:04:23;16.20;99.90
39951;DHT22;25629;51.444;-2.606;2023-10-09T05:07:15;16.30;99.90
39951;DHT22;25629;51.444;-2.606;2023-10-09T05:10:02;16.30;99.90
39951;DHT22;25629;51.444;-2.606;2023-10-09T05:12:40;16.30;99.90
39951;DHT22;25629;51.444;-2.606;2023-10-09T05:15:12;16.40;99.90
39951;DHT22;25629;51.444;-2.606;2023-10-09T05:17:39;16.40;99.90
39951;DHT22;25629;51.444;-2.606;2023-10-09T05:20:07;16.40;99.90
39951;DHT22;25629;51.444;-2.606;2023-10-09T05:22:51;16.30;99.90
39951;DHT22;25629;51.444;-2.606;2023-10-09T05:25:26;16.40;99.90
39951;DHT22;25629;51.444;-2.606;2023-10-09T05:28:10;16.30;99.90
39951;DHT22;25629;51.444;-2.606;2023-10-09T05:30:59;16.30;99.90
39951;DHT22;25629;51.444;-2.606;2023-10-09T05:33:34;16.30;99.90
39951;DHT22;25629;51.444;-2.606;2023-10-09T05:36:05;16.20;99.90
39951;DHT22;25629;51.444;-2.606;2023-10-09T05:38:42;16.20;99.90
39951;DHT22;25629;51.444;-2.606;2023-10-09T05:41:27;16.20;99.90
39951;DHT22;25629;51.444;-2.606;2023-10-09T05:44:13;16.10;99.90
39951;DHT22;25629;51.444;-2.606;2023-10-09T05:46:57;16.10;99.90
39951;DHT22;25629;51.444;-2.606;2023-10-09T05:49:42;16.10;99.90
39951;DHT22;25629;51.444;-2.606;2023-10-09T05:52:34;16.10;99.90
39951;DHT22;25629;51.444;-2.606;2023-10-09T05:55:08;16.10;99.90
39951;DHT22;25629;51.444;-2.606;2023-10-09T05:57:53;16.10;99.90
39951;DHT22;25629;51.444;-2.606;2023-10-09T06:00:21;16.10;99.90
39951;DHT22;25629;51.444;-2.606;2023-10-09T06:03:06;16.10;99.90
39951;DHT22;25629;51.444;-2.606;2023-10-09T06:05:47;16.10;99.90
39951;DHT22;25629;51.444;-2.606;2023-10-09T06:08:26;16.00;99.90
39951;DHT22;25629;51.444;-2.606;2023-10-09T06:11:24;16.00;99.90
39951;DHT22;25629;51.444;-2.606;2023-10-09T06:14:16;16.00;99.90
39951;DHT22;25629;51.444;-2.606;2023-10-09T06:16:50;16.00;99.90
39951;DHT22;25629;51.444;-2.606;2023-10-09T06:19:22;16.10;99.90
39951;DHT22;25629;51.444;-2.606;2023-10-09T06:21:48;16.10;99.90
39951;DHT22;25629;51.444;-2.606;2023-10-09T06:24:29;16.10;99.90
39951;DHT22;25629;51.444;-2.606;2023-10-09T06:27:10;16.10;99.90
39951;DHT22;25629;51.444;-2.606;2023-10-09T06:29:36;16.10;99.90
39951;DHT22;25629;51.444;-2.606;2023-10-09T06:32:05;16.10;99.90
39951;DHT22;25629;51.444;-2.606;2023-10-09T06:34:47;16.10;99.90
39951;DHT22;25629;51.444;-2.606;2023-10-09T06:37:20;16.10;99.90
39951;DHT22;25629;51.444;-2.606;2023-10-09T06:39:51;16.20;99.90
39951;DHT22;25629;51.444;-2.606;2023-10-09T06:42:25;16.20;99.90
39951;DHT22;25629;51.444;-2.606;2023-10-09T06:45:04;16.20;99.90
39951;DHT22;25629;51.444;-2.606;2023-10-09T06:47:34;16.20;99.90
39951;DHT22;25629;51.444;-2.606;2023-10-09T06:50:10;16.20;99.90
39951;DHT22;25629;51.444;-2.606;2023-10-09T06:52:54;16.20;99.90
39951;DHT22;25629;51.444;-2.606;2023-10-09T06:55:23;16.10;99.90
39951;DHT22;25629;51.444;-2.606;2023-10-09T06:58:01;16.10;99.90
39951;DHT22;25629;51.444;-2.606;2023-10-09T07:00:38;16.20;99.90
39951;DHT22;25629;51.444;-2.606;2023-10-09T07:03:19;16.20;99.90
39951;DHT22;25629;51.444;-2.606;2023-10-09T07:05:45;16.30;99.90
39951;DHT22;25629;51.444;-2.606;2023-10-09T07:08:30;16.30;99.90
39951;DHT22;25629;51.444;-2.606;2023-10-09T07:11:03;16.40;99.90
39951;DHT22;25629;51.444;-2.606;2023-10-09T07:13:49;16.40;99.90
39951;DHT22;25629;51.444;-2.606;2023-10-09T07:16:21;16.40;99.90
39951;DHT22;25629;51.444;-2.606;2023-10-09T07:18:56;16.50;99.90
39951;DHT22;25629;51.444;-2.606;2023-10-09T07:21:37;16.50;99.90
39951;DHT22;25629;51.444;-2.606;2023-10-09T07:24:05;16.60;99.90
39951;DHT22;25629;51.444;-2.606;2023-10-09T07:26:40;16.60;99.90
39951;DHT22;25629;51.444;-2.606;2023-10-09T07:29:13;16.60;99.90
39951;DHT22;25629;51.444;-2.606;2023-10-09T07:31:42;16.60;99.90
39951;DHT22;25629;51.444;-2.606;2023-10-09T07:34:11;16.70;99.90
39951;DHT22;25629;51.444;-2.606;2023-10-09T07:36:55;16.80;99.90
39951;DHT22;25629;51.444;-2.606;2023-10-09T07:39:30;16.80;99.90
39951;DHT22;25629;51.444;-2.606;2023-10-09T07:42:01;16.80;99.90
39951;DHT22;25629;51.444;-2.606;2023-10-09T07:44:41;16.90;99.90
39951;DHT22;25629;51.444;-2.606;2023-10-09T07:47:12;16.90;99.90
39951;DHT22;25629;51.444;-2.606;2023-10-09T07:50:09;17.00;99.90
39951;DHT22;25629;51.444;-2.606;2023-10-09T07:52:36;17.10;99.90
39951;DHT22;25629;51.444;-2.606;2023-10-09T07:55:09;17.20;99.90
39951;DHT22;25629;51.444;-2.606;2023-10-09T07:57:52;17.20;99.90
39951;DHT22;25629;51.444;-2.606;2023-10-09T08:00:18;17.30;99.90
39951;DHT22;25629;51.444;-2.606;2023-10-09T08:03:02;17.40;99.90
39951;DHT22;25629;51.444;-2.606;2023-10-09T08:05:28;17.30;99.90
39951;DHT22;25629;51.444;-2.606;2023-10-09T08:08:01;17.30;99.90
39951;DHT22;25629;51.444;-2.606;2023-10-09T08:10:50;17.30;99.90
39951;DHT22;25629;51.444;-2.606;2023-10-09T08:13:34;17.30;99.90
39951;DHT22;25629;51.444;-2.606;2023-10-09T08:16:23;17.30;99.90
39951;DHT22;25629;51.444;-2.606;2023-10-09T08:18:49;17.40;99.90
39951;DHT22;25629;51.444;-2.606;2023-10-09T08:21:17;17.40;99.90
39951;DHT22;25629;51.444;-2.606;2023-10-09T08:23:42;17.40;99.90
39951;DHT22;25629;51.444;-2.606;2023-10-09T08:26:14;17.40;99.90
39951;DHT22;25629;51.444;-2.606;2023-10-09T08:28:40;17.50;99.90
39951;DHT22;25629;51.444;-2.606;2023-10-09T08:31:09;17.60;99.90
39951;DHT22;25629;51.444;-2.606;2023-10-09T08:33:47;17.70;99.90
39951;DHT22;25629;51.444;-2.606;2023-10-09T08:36:24;17.90;99.90
39951;DHT22;25629;51.444;-2.606;2023-10-09T08:38:53;18.00;99.90
39951;DHT22;25629;51.444;-2.606;2023-10-09T08:41:23;18.20;99.90
39951;DHT22;25629;51.444;-2.606;2023-10-09T08:43:56;18.30;99.90
39951;DHT22;25629;51.444;-2.606;2023-10-09T08:46:26;18.40;99.90
39951;DHT22;25629;51.444;-2.606;2023-10-09T08:48:56;18.50;99.90
39951;DHT22;25629;51.444;-2.606;2023-10-09T08:51:23;18.60;99.90
39951;DHT22;25629;51.444;-2.606;2023-10-09T08:53:49;18.70;99.90
39951;DHT22;25629;51.444;-2.606;2023-10-09T08:56:18;18.60;99.90
39951;DHT22;25629;51.444;-2.606;2023-10-09T08:58:50;18.60;99.90
39951;DHT22;25629;51.444;-2.606;2023-10-09T09:01:17;18.60;99.90
39951;DHT22;25629;51.444;-2.606;2023-10-09T09:03:47;18.60;99.90
39951;DHT22;25629;51.444;-2.606;2023-10-09T09:06:13;18.70;99.90
39951;DHT22;25629;51.444;-2.606;2023-10-09T09:08:39;18.70;99.90
39951;DHT22;25629;51.444;-2.606;2023-10-09T09:11:09;18.80;99.90
39951;DHT22;25629;51.444;-2.606;2023-10-09T09:13:41;18.80;99.90
39951;DHT22;25629;51.444;-2.606;2023-10-09T09:16:13;18.90;99.90
39951;DHT22;25629;51.444;-2.606;2023-10-09T09:18:48;18.90;99.90
39951;DHT22;25629;51.444;-2.606;2023-10-09T09:21:18;19.00;99.90
39951;DHT22;25629;51.444;-2.606;2023-10-09T09:23:58;19.10;99.90
39951;DHT22;25629;51.444;-2.606;2023-10-09T09:26:33;19.10;99.90
39951;DHT22;25629;51.444;-2.606;2023-10-09T09:29:05;18.90;99.90
39951;DHT22;25629;51.444;-2.606;2023-10-09T09:31:32;18.80;99.90
39951;DHT22;25629;51.444;-2.606;2023-10-09T09:34:06;19.00;99.90
39951;DHT22;25629;51.444;-2.606;2023-10-09T09:36:57;19.30;99.90
39951;DHT22;25629;51.444;-2.606;2023-10-09T09:39:26;19.50;99.90
39951;DHT22;25629;51.444;-2.606;2023-10-09T09:41:55;19.60;99.90
39951;DHT22;25629;51.444;-2.606;2023-10-09T09:44:23;19.70;99.90
39951;DHT22;25629;51.444;-2.606;2023-10-09T09:46:51;19.80;99.90
39951;DHT22;25629;51.444;-2.606;2023-10-09T09:49:19;19.90;99.90
39951;DHT22;25629;51.444;-2.606;2023-10-09T09:51:47;19.90;99.90
39951;DHT22;25629;51.444;-2.606;2023-10-09T09:54:15;19.80;99.90
39951;DHT22;25629;51.444;-2.606;2023-10-09T09:56:44;19.90;99.90
39951;DHT22;25629;51.444;-2.606;2023-10-09T09:59:20;19.90;99.90
39951;DHT22;25629;51.444;-2.606;2023-10-09T10:01:54;19.80;99.90
39951;DHT22;25629;51.444;-2.606;2023-10-09T10:04:25;19.70;99.90
39951;DHT22;25629;51.444;-2.606;2023-10-09T10:06:52;19.70;99.90
39951;DHT22;25629;51.444;-2.606;2023-10-09T10:12:07;19.60;99.90
39951;DHT22;25629;51.444;-2.606;2023-10-09T10:15:09;19.70;99.90
39951;DHT22;25629;51.444;-2.606;2023-10-09T10:20:21;19.60;99.90
39951;DHT22;25629;51.444;-2.606;2023-10-09T10:22:49;19.70;99.90
39951;DHT22;25629;51.444;-2.606;2023-10-09T10:28:17;19.50;99.90
39951;DHT22;25629;51.444;-2.606;2023-10-09T10:31:02;19.50;99.90
39951;DHT22;25629;51.444;-2.606;2023-10-09T10:36:14;19.60;99.90
39951;DHT22;25629;51.444;-2.606;2023-10-09T10:39:09;20.00;99.90
39951;DHT22;25629;51.444;-2.606;2023-10-09T10:41:54;20.20;96.40
39951;DHT22;25629;51.444;-2.606;2023-10-09T10:44:29;20.30;94.70
39951;DHT22;25629;51.444;-2.606;2023-10-09T10:47:08;20.30;94.50
39951;DHT22;25629;51.444;-2.606;2023-10-09T10:49:53;20.30;99.60
39951;DHT22;25629;51.444;-2.606;2023-10-09T10:52:45;20.50;97.30
39951;DHT22;25629;51.444;-2.606;2023-10-09T10:55:16;21.00;91.40
39951;DHT22;25629;51.444;-2.606;2023-10-09T10:57:56;21.20;82.00
39951;DHT22;25629;51.444;-2.606;2023-10-09T11:00:35;21.40;77.70
39951;DHT22;25629;51.444;-2.606;2023-10-09T11:03:20;21.80;73.90
39951;DHT22;25629;51.444;-2.606;2023-10-09T11:06:00;22.10;47.40
39951;DHT22;25629;51.444;-2.606;2023-10-09T11:08:40;22.30;44.40
39951;DHT22;25629;51.444;-2.606;2023-10-09T11:11:15;22.90;36.10
39951;DHT22;25629;51.444;-2.606;2023-10-09T11:13:41;23.10;1.00
39951;DHT22;25629;51.444;-2.606;2023-10-09T11:16:19;23.30;1.00
39951;DHT22;25629;51.444;-2.606;2023-10-09T11:18:57;23.30;1.00
39951;DHT22;25629;51.444;-2.606;2023-10-09T11:21:29;23.30;99.90
39951;DHT22;25629;51.444;-2.606;2023-10-09T11:23:57;23.30;99.90
39951;DHT22;25629;51.444;-2.606;2023-10-09T11:26:24;23.50;99.90
39951;DHT22;25629;51.444;-2.606;2023-10-09T11:29:11;23.60;99.90
39951;DHT22;25629;51.444;-2.606;2023-10-09T11:34:31;23.70;1.00
39951;DHT22;25629;51.444;-2.606;2023-10-09T11:37:07;23.60;99.90
39951;DHT22;25629;51.444;-2.606;2023-10-09T11:39:38;23.70;99.90
39951;DHT22;25629;51.444;-2.606;2023-10-09T11:42:17;23.80;95.30
39951;DHT22;25629;51.444;-2.606;2023-10-09T11:45:01;24.10;99.90
39951;DHT22;25629;51.444;-2.606;2023-10-09T11:47:36;24.40;99.90
39951;DHT22;25629;51.444;-2.606;2023-10-09T11:50:11;24.60;99.90
39951;DHT22;25629;51.444;-2.606;2023-10-09T11:52:55;24.70;35.40
39951;DHT22;25629;51.444;-2.606;2023-10-09T11:55:47;24.60;99.90
39951;DHT22;25629;51.444;-2.606;2023-10-09T11:58:20;24.80;99.90
39951;DHT22;25629;51.444;-2.606;2023-10-09T12:00:50;24.80;99.90
39951;DHT22;25629;51.444;-2.606;2023-10-09T12:03:17;24.70;99.90
39951;DHT22;25629;51.444;-2.606;2023-10-09T12:05:42;24.60;99.90
39951;DHT22;25629;51.444;-2.606;2023-10-09T12:08:12;24.70;1.00
39951;DHT22;25629;51.444;-2.606;2023-10-09T12:10:40;24.70;99.90
39951;DHT22;25629;51.444;-2.606;2023-10-09T12:13:06;24.90;99.90
39951;DHT22;25629;51.444;-2.606;2023-10-09T12:15:33;25.20;99.90
39951;DHT22;25629;51.444;-2.606;2023-10-09T12:18:07;25.30;1.00
39951;DHT22;25629;51.444;-2.606;2023-10-09T12:20:43;25.60;1.00
39951;DHT22;25629;51.444;-2.606;2023-10-09T12:23:19;25.70;99.90
39951;DHT22;25629;51.444;-2.606;2023-10-09T12:25:45;25.70;99.90
39951;DHT22;25629;51.444;-2.606;2023-10-09T12:28:11;25.90;99.90
39951;DHT22;25629;51.444;-2.606;2023-10-09T12:30:40;26.20;99.90
39951;DHT22;25629;51.444;-2.606;2023-10-09T12:33:06;26.30;99.90
39951;DHT22;25629;51.444;-2.606;2023-10-09T12:35:39;26.20;99.90
39951;DHT22;25629;51.444;-2.606;2023-10-09T12:38:05;26.50;99.90
39951;DHT22;25629;51.444;-2.606;2023-10-09T12:40:35;26.90;99.90
39951;DHT22;25629;51.444;-2.606;2023-10-09T12:43:01;27.10;99.90
39951;DHT22;25629;51.444;-2.606;2023-10-09T12:45:27;27.10;99.90
39951;DHT22;25629;51.444;-2.606;2023-10-09T12:47:53;27.50;98.60
39951;DHT22;25629;51.444;-2.606;2023-10-09T12:50:19;27.70;99.90
39951;DHT22;25629;51.444;-2.606;2023-10-09T12:52:59;27.90;50.20
39951;DHT22;25629;51.444;-2.606;2023-10-09T12:55:30;27.90;53.40
39951;DHT22;25629;51.444;-2.606;2023-10-09T12:58:00;28.30;16.60
39951;DHT22;25629;51.444;-2.606;2023-10-09T13:00:32;28.50;1.00
39951;DHT22;25629;51.444;-2.606;2023-10-09T13:02:58;28.70;1.00
39951;DHT22;25629;51.444;-2.606;2023-10-09T13:05:26;28.70;1.00
39951;DHT22;25629;51.444;-2.606;2023-10-09T13:07:52;28.90;1.00
39951;DHT22;25629;51.444;-2.606;2023-10-09T13:10:21;28.90;1.00
39951;DHT22;25629;51.444;-2.606;2023-10-09T13:12:49;29.00;1.00
39951;DHT22;25629;51.444;-2.606;2023-10-09T13:15:20;29.50;1.00
39951;DHT22;25629;51.444;-2.606;2023-10-09T13:17:46;29.70;1.00
39951;DHT22;25629;51.444;-2.606;2023-10-09T13:20:12;29.50;1.00
39951;DHT22;25629;51.444;-2.606;2023-10-09T13:22:38;29.20;1.00
39951;DHT22;25629;51.444;-2.606;2023-10-09T13:25:05;29.20;1.00
39951;DHT22;25629;51.444;-2.606;2023-10-09T13:27:30;29.40;1.00
39951;DHT22;25629;51.444;-2.606;2023-10-09T13:29:59;29.40;1.00
39951;DHT22;25629;51.444;-2.606;2023-10-09T13:32:31;29.50;1.00
39951;DHT22;25629;51.444;-2.606;2023-10-09T13:35:01;29.40;1.00
39951;DHT22;25629;51.444;-2.606;2023-10-09T13:37:31;29.40;1.00
39951;DHT22;25629;51.444;-2.606;2023-10-09T13:40:05;29.60;1.00
39951;DHT22;25629;51.444;-2.606;2023-10-09T13:42:37;30.00;1.00
39951;DHT22;25629;51.444;-2.606;2023-10-09T13:45:03;30.20;1.00
39951;DHT22;25629;51.444;-2.606;2023-10-09T13:47:33;30.10;1.00
39951;DHT22;25629;51.444;-2.606;2023-10-09T13:49:59;30.30;99.90
39951;DHT22;25629;51.444;-2.606;2023-10-09T13:52:25;30.50;99.90
39951;DHT22;25629;51.444;-2.606;2023-10-09T13:54:52;30.80;99.90
39951;DHT22;25629;51.444;-2.606;2023-10-09T13:57:18;30.70;99.90
39951;DHT22;25629;51.444;-2.606;2023-10-09T13:59:47;30.70;99.90
39951;DHT22;25629;51.444;-2.606;2023-10-09T14:02:17;31.00;99.90
39951;DHT22;25629;51.444;-2.606;2023-10-09T14:04:43;31.20;99.90
39951;DHT22;25629;51.444;-2.606;2023-10-09T14:07:09;31.20;99.90
39951;DHT22;25629;51.444;-2.606;2023-10-09T14:09:35;30.80;99.90
39951;DHT22;25629;51.444;-2.606;2023-10-09T14:12:04;30.20;99.90
39951;DHT22;25629;51.444;-2.606;2023-10-09T14:14:39;30.20;99.90
39951;DHT22;25629;51.444;-2.606;2023-10-09T14:17:06;30.20;99.90
39951;DHT22;25629;51.444;-2.606;2023-10-09T14:19:40;30.20;99.90
39951;DHT22;25629;51.444;-2.606;2023-10-09T14:22:22;30.10;99.90
39951;DHT22;25629;51.444;-2.606;2023-10-09T14:24:55;30.20;99.90
39951;DHT22;25629;51.444;-2.606;2023-10-09T14:27:21;30.60;99.90
39951;DHT22;25629;51.444;-2.606;2023-10-09T14:29:49;30.60;99.90
39951;DHT22;25629;51.444;-2.606;2023-10-09T14:32:15;30.60;99.90
39951;DHT22;25629;51.444;-2.606;2023-10-09T14:34:43;30.60;99.90
39951;DHT22;25629;51.444;-2.606;2023-10-09T14:37:17;30.60;99.90
39951;DHT22;25629;51.444;-2.606;2023-10-09T14:39:44;30.40;99.90
39951;DHT22;25629;51.444;-2.606;2023-10-09T14:42:16;30.10;99.90
39951;DHT22;25629;51.444;-2.606;2023-10-09T14:44:43;29.90;99.90
39951;DHT22;25629;51.444;-2.606;2023-10-09T14:47:10;30.00;99.90
39951;DHT22;25629;51.444;-2.606;2023-10-09T14:49:36;29.90;99.90
39951;DHT22;25629;51.444;-2.606;2023-10-09T14:52:12;30.00;99.90
39951;DHT22;25629;51.444;-2.606;2023-10-09T14:54:44;30.00;99.90
39951;DHT22;25629;51.444;-2.606;2023-10-09T14:57:10;30.30;99.90
39951;DHT22;25629;51.444;-2.606;2023-10-09T14:59:37;30.70;99.90
39951;DHT22;25629;51.444;-2.606;2023-10-09T15:02:03;31.00;99.90
39951;DHT22;25629;51.444;-2.606;2023-10-09T15:04:30;30.80;99.90
39951;DHT22;25629;51.444;-2.606;2023-10-09T15:06:56;30.70;99.90
39951;DHT22;25629;51.444;-2.606;2023-10-09T15:09:22;30.20;99.90
39951;DHT22;25629;51.444;-2.606;2023-10-09T15:11:48;29.90;99.90
39951;DHT22;25629;51.444;-2.606;2023-10-09T15:14:14;29.40;99.90
39951;DHT22;25629;51.444;-2.606;2023-10-09T15:16:40;28.90;99.90
39951;DHT22;25629;51.444;-2.606;2023-10-09T15:19:08;28.30;99.90
39951;DHT22;25629;51.444;-2.606;2023-10-09T15:21:39;27.40;99.90
39951;DHT22;25629;51.444;-2.606;2023-10-09T15:24:14;26.60;99.90
39951;DHT22;25629;51.444;-2.606;2023-10-09T15:26:45;26.00;99.90
39951;DHT22;25629;51.444;-2.606;2023-10-09T15:29:20;25.70;99.90
39951;DHT22;25629;51.444;-2.606;2023-10-09T15:32:00;25.50;99.90
39951;DHT22;25629;51.444;-2.606;2023-10-09T15:34:35;25.90;99.90
39951;DHT22;25629;51.444;-2.606;2023-10-09T15:37:01;26.60;99.90
39951;DHT22;25629;51.444;-2.606;2023-10-09T15:39:29;27.50;99.90
39951;DHT22;25629;51.444;-2.606;2023-10-09T15:41:56;27.80;99.90
39951;DHT22;25629;51.444;-2.606;2023-10-09T15:44:21;27.50;99.90
39951;DHT22;25629;51.444;-2.606;2023-10-09T15:46:50;27.00;99.90
39951;DHT22;25629;51.444;-2.606;2023-10-09T15:49:16;26.70;99.90
39951;DHT22;25629;51.444;-2.606;2023-10-09T15:51:42;26.60;99.90
39951;DHT22;25629;51.444;-2.606;2023-10-09T15:54:12;27.20;99.90
39951;DHT22;25629;51.444;-2.606;2023-10-09T15:56:41;27.80;99.90
39951;DHT22;25629;51.444;-2.606;2023-10-09T15:59:07;28.40;99.90
39951;DHT22;25629;51.444;-2.606;2023-10-09T16:01:33;28.90;99.90
39951;DHT22;25629;51.444;-2.606;2023-10-09T16:04:00;28.50;99.90
39951;DHT22;25629;51.444;-2.606;2023-10-09T16:06:26;28.00;99.90